Starkville, Colorado
Current Conditions -  °F | °C
As of 9:06 PM on Monday 22 Dec 2014 (Local Time) from KTAD Reporting Station
Light Snow Light Snow  
Wind Chill: 16°   Ceiling: 2500
Heat Index: 26°   Visibility: 1.7mi
Dew Point: 24°   Wind: 12mph
Humidity: 92%   Direction: 310°NW
Pressure: 29.86"   Gusts: NA
Location:  37.12°N, 104.52°W
Report Text: KTAD 230406Z AUTO 31010KT 1 3/4SM -SN BR BKN025 BKN038 OVC050 M03/M04 A2986 RMK AO2 SNB0357 P0000 T10331044
Loading
Personal Weather Stations






























Interactive Weather Map New forecast layout! Learn more

10-Day Weather Forecast

Advertisements
Track Severe Weather on mobile